Time;durP1;ratioP1;P1;durP2;ratioP2;P2;SDS_P1;SDS_P2;PMS_P1;PMS_P2;Temp;Humidity;BMP_temperature;BMP_pressure;BME280_temperature;BME280_humidity;BME280_pressure;Samples;Min_cycle;Max_cycle;Signal;HPM_P1;HPM_P2
2024/03/12 00:00:28;;;;;;;8.68;5.25;;;5.30;99.90;;;;;;5114462;27;20098;-63
2024/03/12 00:03:15;;;;;;;8.07;5.25;;;5.30;99.90;;;;;;5107349;27;20035;-64
2024/03/12 00:06:01;;;;;;;8.10;4.40;;;5.30;99.90;;;;;;5117866;28;20059;-64
2024/03/12 00:08:48;;;;;;;8.07;5.13;;;5.30;99.90;;;;;;5110982;28;20126;-64
2024/03/12 00:11:34;;;;;;;8.98;5.05;;;5.20;99.90;;;;;;5110742;28;20036;-63
2024/03/12 00:14:20;;;;;;;8.10;5.37;;;5.20;99.90;;;;;;5113965;27;20016;-64
2024/03/12 00:17:08;;;;;;;11.63;5.25;;;5.20;99.90;;;;;;5109674;28;20360;-64
2024/03/12 00:19:53;;;;;;;12.55;5.40;;;5.20;99.90;;;;;;5103382;28;20035;-64
2024/03/12 00:22:42;;;;;;;6.70;4.22;;;5.20;99.90;;;;;;5097636;28;20123;-64
2024/03/12 00:25:30;;;;;;;8.70;5.70;;;5.10;99.90;;;;;;5093928;28;20040;-64
2024/03/12 00:28:16;;;;;;;9.07;5.75;;;5.10;99.90;;;;;;5100149;28;20104;-64
2024/03/12 00:31:05;;;;;;;9.67;5.70;;;5.00;99.90;;;;;;5101694;27;20032;-64
2024/03/12 00:33:50;;;;;;;11.18;5.53;;;4.90;99.90;;;;;;5103801;27;20031;-63
2024/03/12 00:36:36;;;;;;;8.30;5.07;;;4.90;99.90;;;;;;5102123;27;20537;-64
2024/03/12 00:39:22;;;;;;;8.63;5.63;;;4.80;99.90;;;;;;5102499;27;20038;-64
2024/03/12 00:42:08;;;;;;;7.95;5.72;;;4.80;99.90;;;;;;5087209;28;20038;-64
2024/03/12 00:44:55;;;;;;;8.68;5.07;;;4.80;99.90;;;;;;5070756;22;20044;-64
2024/03/12 00:47:42;;;;;;;8.38;5.05;;;4.80;99.90;;;;;;5039573;28;20049;-64
2024/03/12 00:50:28;;;;;;;9.77;5.60;;;4.80;99.90;;;;;;5039430;28;20043;-64
2024/03/12 00:53:14;;;;;;;7.20;5.00;;;4.90;99.90;;;;;;5042390;28;20029;-64
2024/03/12 00:56:01;;;;;;;10.48;5.60;;;5.00;99.90;;;;;;5040059;28;20032;-64
2024/03/12 00:58:50;;;;;;;11.10;6.82;;;4.90;99.90;;;;;;5041647;28;20159;-64
2024/03/12 01:01:36;;;;;;;8.68;5.10;;;5.00;99.90;;;;;;5040251;28;20859;-64
2024/03/12 01:04:22;;;;;;;11.55;6.45;;;5.10;99.90;;;;;;5037969;28;20037;-64
2024/03/12 01:07:08;;;;;;;9.70;5.82;;;5.10;99.90;;;;;;5042510;28;20029;-64
2024/03/12 01:09:55;;;;;;;9.27;4.77;;;5.20;99.90;;;;;;5039691;28;20406;-64
2024/03/12 01:12:41;;;;;;;;;;;5.30;99.90;;;;;;5040548;28;20068;-64
2024/03/12 01:15:27;;;;;;;8.05;5.20;;;5.30;99.90;;;;;;5038100;28;20351;-64
2024/03/12 01:18:13;;;;;;;10.27;5.57;;;5.30;99.90;;;;;;5040723;28;20035;-64
2024/03/12 01:20:59;;;;;;;8.38;6.10;;;5.40;99.90;;;;;;5037564;28;20044;-64
2024/03/12 01:23:44;;;;;;;10.63;5.20;;;5.40;99.90;;;;;;5040632;28;20037;-64
2024/03/12 01:26:31;;;;;;;6.50;4.90;;;5.50;99.90;;;;;;5037668;28;20116;-64
2024/03/12 01:29:16;;;;;;;7.47;5.38;;;5.50;99.90;;;;;;5037485;28;20406;-64
2024/03/12 01:32:06;;;;;;;;;;;5.50;99.90;;;;;;5041669;28;20041;-64
2024/03/12 01:34:52;;;;;;;9.98;5.60;;;5.60;99.90;;;;;;5038206;28;19916;-64
2024/03/12 01:37:41;;;;;;;7.50;5.70;;;5.50;99.90;;;;;;5042830;28;20171;-64
2024/03/12 01:40:29;;;;;;;10.38;5.95;;;5.60;99.90;;;;;;5033960;28;20041;-64
2024/03/12 01:43:15;;;;;;;8.02;5.15;;;5.60;99.90;;;;;;5041539;28;20551;-64
2024/03/12 01:46:03;;;;;;;8.17;5.23;;;5.60;99.90;;;;;;5038448;28;20028;-64
2024/03/12 01:48:48;;;;;;;9.57;5.72;;;5.60;99.90;;;;;;5041653;28;20032;-64
2024/03/12 01:51:36;;;;;;;10.13;6.07;;;5.60;99.90;;;;;;5041758;28;20562;-64
2024/03/12 01:54:22;;;;;;;7.55;5.72;;;5.60;99.90;;;;;;5039252;28;20099;-64
2024/03/12 01:57:10;;;;;;;10.02;5.45;;;5.70;99.90;;;;;;5039913;28;20486;-64
2024/03/12 01:59:56;;;;;;;10.10;5.93;;;5.70;99.90;;;;;;5036308;28;20037;-64
2024/03/12 02:02:44;;;;;;;6.88;4.72;;;5.80;99.90;;;;;;5039477;28;20067;-64
2024/03/12 02:05:30;;;;;;;7.88;5.47;;;5.80;99.90;;;;;;5037465;28;20076;-64
2024/03/12 02:08:16;;;;;;;9.68;5.47;;;5.80;99.90;;;;;;5039619;28;20114;-64
2024/03/12 02:11:02;;;;;;;8.90;6.05;;;5.80;99.90;;;;;;5036275;28;20115;-64
2024/03/12 02:13:51;;;;;;;8.93;5.43;;;5.90;99.90;;;;;;5039752;28;20037;-64
2024/03/12 02:16:38;;;;;;;7.05;4.72;;;5.90;99.90;;;;;;5039638;28;20294;-64
2024/03/12 02:19:24;;;;;;;9.93;5.07;;;6.00;99.90;;;;;;5041124;28;20042;-64
2024/03/12 02:22:10;;;;;;;8.55;5.13;;;6.00;99.90;;;;;;5039381;28;20037;-64
2024/03/12 02:24:58;;;;;;;7.10;5.00;;;6.00;99.90;;;;;;5035579;28;20025;-64
2024/03/12 02:27:44;;;;;;;7.47;4.95;;;5.90;99.90;;;;;;5023722;28;20308;-64
2024/03/12 02:30:30;;;;;;;5.40;3.90;;;5.90;99.90;;;;;;5037432;28;20036;-64
2024/03/12 02:33:16;;;;;;;7.40;3.80;;;6.00;99.90;;;;;;5039838;28;21031;-64
2024/03/12 02:36:05;;;;;;;7.60;4.55;;;6.00;99.90;;;;;;5036980;28;20300;-64
2024/03/12 02:38:50;;;;;;;7.13;4.32;;;6.00;99.90;;;;;;5039552;28;20044;-64
2024/03/12 02:41:36;;;;;;;8.00;4.32;;;6.00;99.90;;;;;;5036536;28;20071;-64
2024/03/12 02:44:22;;;;;;;8.52;4.55;;;6.00;99.90;;;;;;5034063;28;20040;-64
2024/03/12 02:47:09;;;;;;;7.45;4.45;;;6.00;99.90;;;;;;5039552;28;20115;-64
2024/03/12 02:49:55;;;;;;;9.55;4.70;;;6.00;99.90;;;;;;5033181;28;20036;-64
2024/03/12 02:52:41;;;;;;;8.20;4.10;;;6.00;99.90;;;;;;5039756;28;20047;-64
2024/03/12 02:55:27;;;;;;;10.07;4.50;;;6.00;99.90;;;;;;5034737;28;20313;-64
2024/03/12 02:58:15;;;;;;;11.30;4.90;;;6.10;99.90;;;;;;5039295;28;20048;-64
2024/03/12 03:01:01;;;;;;;9.00;4.45;;;6.00;99.90;;;;;;5035566;28;20035;-64
2024/03/12 03:03:46;;;;;;;8.18;4.88;;;6.10;99.90;;;;;;5039370;28;20110;-64
2024/03/12 03:06:32;;;;;;;8.10;4.50;;;6.10;99.90;;;;;;5039774;28;20553;-64
2024/03/12 03:09:18;;;;;;;11.63;5.82;;;6.10;99.90;;;;;;5037283;28;20029;-64
2024/03/12 03:12:05;;;;;;;7.43;5.18;;;6.10;99.90;;;;;;5041072;28;20425;-64
2024/03/12 03:14:51;;;;;;;8.57;4.93;;;6.00;99.90;;;;;;5035909;28;20048;-64
2024/03/12 03:17:37;;;;;;;8.23;5.63;;;6.10;99.90;;;;;;5037210;28;20086;-64
2024/03/12 03:20:23;;;;;;;8.63;5.53;;;6.10;99.90;;;;;;5033374;28;20044;-64
2024/03/12 03:23:09;;;;;;;10.43;5.38;;;6.10;99.90;;;;;;5038205;28;20576;-64
2024/03/12 03:25:55;;;;;;;10.45;6.43;;;6.10;99.90;;;;;;5033675;28;20421;-64
2024/03/12 03:28:41;;;;;;;11.80;6.82;;;6.10;99.90;;;;;;5034873;28;20565;-64
2024/03/12 03:31:27;;;;;;;12.98;6.68;;;6.10;99.90;;;;;;5021610;28;20044;-64
2024/03/12 03:34:13;;;;;;;10.90;6.32;;;6.10;99.90;;;;;;5035201;28;20299;-64
2024/03/12 03:36:59;;;;;;;14.23;8.07;;;6.10;99.90;;;;;;5038671;28;20509;-64
2024/03/12 03:39:45;;;;;;;17.65;9.23;;;6.10;99.90;;;;;;5035830;28;20095;-64
2024/03/12 03:42:31;;;;;;;15.95;8.57;;;6.10;99.90;;;;;;5040388;28;20072;-64
2024/03/12 03:45:18;;;;;;;16.08;9.60;;;6.10;99.90;;;;;;5035102;28;20087;-64
2024/03/12 03:48:04;;;;;;;;;;;6.00;99.90;;;;;;5036577;28;20582;-64
2024/03/12 03:50:50;;;;;;;15.25;7.85;;;6.00;99.90;;;;;;5034125;28;20131;-64
2024/03/12 03:53:36;;;;;;;16.42;7.63;;;6.00;99.90;;;;;;5041908;28;20059;-64
2024/03/12 03:56:23;;;;;;;16.60;8.77;;;6.00;99.90;;;;;;5039670;28;20043;-64
2024/03/12 03:59:13;;;;;;;13.43;8.35;;;6.00;99.90;;;;;;5043089;28;20064;-64
2024/03/12 04:01:59;;;;;;;15.45;9.70;;;6.10;99.90;;;;;;5042541;28;20036;-64
2024/03/12 04:04:45;;;;;;;14.98;8.38;;;6.00;99.90;;;;;;5036059;28;20041;-64
2024/03/12 04:07:32;;;;;;;16.05;9.30;;;6.00;99.90;;;;;;5044202;28;20043;-64
2024/03/12 04:10:18;;;;;;;15.45;9.27;;;6.10;99.90;;;;;;5039994;28;20075;-64
2024/03/12 04:13:04;;;;;;;14.88;9.23;;;6.00;99.90;;;;;;5042478;28;20030;-64
2024/03/12 04:15:50;;;;;;;17.02;10.00;;;6.10;99.90;;;;;;5037734;28;20037;-64
2024/03/12 04:18:36;;;;;;;16.57;10.03;;;6.10;99.90;;;;;;5041165;28;20045;-64
2024/03/12 04:21:22;;;;;;;19.73;11.13;;;6.10;99.90;;;;;;5040181;28;20283;-64
2024/03/12 04:24:10;;;;;;;17.17;10.52;;;6.10;99.90;;;;;;5041078;28;20045;-64
2024/03/12 04:26:56;;;;;;;17.35;10.32;;;6.10;99.90;;;;;;5041433;28;20560;-64
2024/03/12 04:29:42;;;;;;;15.52;9.90;;;6.10;99.90;;;;;;5038398;28;20029;-64
2024/03/12 04:32:28;;;;;;;15.90;10.05;;;6.10;99.90;;;;;;5042736;28;20043;-64
2024/03/12 04:35:14;;;;;;;16.60;10.90;;;6.10;99.90;;;;;;5039341;28;20029;-64
2024/03/12 04:38:02;;;;;;;21.67;11.82;;;6.10;99.90;;;;;;5041733;28;20677;-64
2024/03/12 04:40:47;;;;;;;20.52;12.45;;;6.10;99.90;;;;;;5024637;28;20033;-64
2024/03/12 04:43:33;;;;;;;19.67;12.68;;;6.10;99.90;;;;;;5039948;28;20587;-64
2024/03/12 04:46:19;;;;;;;20.25;12.77;;;6.10;99.90;;;;;;5039153;28;20641;-64
2024/03/12 04:49:07;;;;;;;21.50;13.43;;;6.10;99.90;;;;;;5026117;28;20112;-64
2024/03/12 04:51:53;;;;;;;19.92;12.52;;;6.10;99.90;;;;;;5041030;28;20609;-64
2024/03/12 04:54:39;;;;;;;21.38;12.73;;;6.10;99.90;;;;;;5038500;28;20109;-64
2024/03/12 04:57:24;;;;;;;18.00;11.65;;;6.10;99.90;;;;;;5042850;28;20088;-64
2024/03/12 05:00:14;;;;;;;22.63;13.00;;;6.10;99.90;;;;;;5026130;28;20438;-64
2024/03/12 05:03:00;;;;;;;17.67;10.65;;;6.10;99.90;;;;;;5040823;28;20544;-64
2024/03/12 05:05:46;;;;;;;26.30;14.32;;;6.10;99.90;;;;;;5037285;28;20116;-64
2024/03/12 05:08:32;;;;;;;26.00;14.63;;;6.10;99.90;;;;;;5044543;28;20098;-64
2024/03/12 05:11:18;;;;;;;27.97;14.83;;;6.00;99.90;;;;;;5037786;28;20463;-64
2024/03/12 05:14:04;;;;;;;27.98;15.95;;;6.00;99.90;;;;;;5039647;28;20487;-64
2024/03/12 05:16:51;;;;;;;27.23;12.57;;;6.00;99.90;;;;;;5039648;28;20474;-64
2024/03/12 05:19:37;;;;;;;31.45;15.95;;;6.00;99.90;;;;;;5040940;28;20541;-64
2024/03/12 05:22:23;;;;;;;27.90;14.35;;;6.00;99.90;;;;;;5041803;28;20033;-64
2024/03/12 05:25:10;;;;;;;25.27;13.53;;;5.90;99.90;;;;;;5038372;28;20124;-64
2024/03/12 05:27:58;;;;;;;28.65;15.63;;;6.00;99.90;;;;;;5040226;28;20263;-64
2024/03/12 05:30:43;;;;;;;25.50;13.65;;;6.00;99.90;;;;;;5037132;28;20108;-64
2024/03/12 05:33:38;;;;;;;22.73;12.95;;;6.00;99.90;;;;;;5038431;28;20071;-64
2024/03/12 05:36:24;;;;;;;22.33;12.82;;;6.00;99.90;;;;;;5038186;28;20048;-64
2024/03/12 05:39:24;;;;;;;23.58;13.38;;;6.00;99.90;;;;;;5040717;28;20247;-64
2024/03/12 05:48:19;;;;;;;21.10;11.52;;;6.10;99.90;;;;;;5040112;28;20047;-64
2024/03/12 05:51:05;;;;;;;18.52;10.05;;;6.10;99.90;;;;;;5038913;28;20040;-64
2024/03/12 05:53:51;;;;;;;17.00;9.32;;;6.10;99.90;;;;;;5040270;28;20116;-64
2024/03/12 05:56:37;;;;;;;13.82;8.10;;;6.10;99.90;;;;;;5038320;28;20041;-65
2024/03/12 05:59:25;;;;;;;9.27;5.78;;;6.10;99.90;;;;;;5035978;28;20091;-65
2024/03/12 06:02:11;;;;;;;14.25;7.35;;;6.10;99.90;;;;;;5039618;28;20036;-65
2024/03/12 06:04:57;;;;;;;11.70;6.95;;;6.20;99.90;;;;;;5038484;28;20028;-65
2024/03/12 06:07:52;;;;;;;12.48;6.75;;;6.10;99.90;;;;;;5038463;28;20552;-65
2024/03/12 06:10:38;;;;;;;11.55;6.93;;;6.20;99.90;;;;;;5037251;28;20041;-65
2024/03/12 06:13:24;;;;;;;12.43;6.93;;;6.20;99.90;;;;;;5040768;28;20096;-65
2024/03/12 06:16:11;;;;;;;14.75;7.75;;;6.20;99.90;;;;;;5033714;28;20037;-65
2024/03/12 06:18:57;;;;;;;11.05;7.15;;;6.20;99.90;;;;;;5039028;28;20099;-65
2024/03/12 06:21:43;;;;;;;12.68;7.55;;;6.10;99.90;;;;;;5037131;28;20041;-64
2024/03/12 06:24:30;;;;;;;11.60;6.93;;;6.10;99.90;;;;;;5036294;28;20040;-65
2024/03/12 06:27:18;;;;;;;9.82;6.47;;;6.10;99.90;;;;;;5038925;28;20045;-64
2024/03/12 06:30:05;;;;;;;14.13;7.20;;;6.10;99.90;;;;;;5034042;28;20033;-64
2024/03/12 06:32:52;;;;;;;14.43;7.90;;;6.10;99.90;;;;;;5038985;28;20501;-64
2024/03/12 06:35:39;;;;;;;13.32;7.75;;;6.00;99.90;;;;;;5035667;28;20051;-64
2024/03/12 06:38:25;;;;;;;18.08;9.77;;;6.00;99.90;;;;;;5040662;28;20036;-64
2024/03/12 06:41:11;;;;;;;16.20;9.25;;;6.00;99.90;;;;;;5035272;28;20108;-64
2024/03/12 06:43:58;;;;;;;13.40;8.32;;;6.00;99.90;;;;;;5039528;28;20025;-64
2024/03/12 06:46:45;;;;;;;14.88;8.30;;;6.00;99.90;;;;;;5040075;28;20029;-64
2024/03/12 06:49:33;;;;;;;16.13;9.52;;;6.00;99.90;;;;;;5035576;28;20094;-64
2024/03/12 06:52:22;;;;;;;12.95;8.50;;;5.90;99.90;;;;;;5040565;28;20049;-64
2024/03/12 06:55:16;;;;;;;16.45;9.50;;;6.00;99.90;;;;;;5037453;28;20675;-64
2024/03/12 06:58:04;;;;;;;17.73;10.27;;;6.00;99.90;;;;;;5040516;28;20051;-64
2024/03/12 07:00:50;;;;;;;18.70;10.43;;;6.00;99.90;;;;;;5037699;28;20418;-64
2024/03/12 07:03:39;;;;;;;16.38;9.48;;;6.00;99.90;;;;;;5035104;22;20053;-63
2024/03/12 07:06:25;;;;;;;16.95;9.98;;;6.00;99.90;;;;;;5018553;28;20366;-63
2024/03/12 07:09:20;;;;;;;17.70;10.25;;;6.00;99.90;;;;;;5021851;28;20042;-63
2024/03/12 07:12:08;;;;;;;15.20;9.32;;;6.00;99.90;;;;;;5021230;28;20087;-63
2024/03/12 07:14:54;;;;;;;17.27;8.73;;;6.00;99.90;;;;;;5021209;28;20041;-63
2024/03/12 07:17:40;;;;;;;14.82;8.55;;;6.10;99.90;;;;;;5020687;28;20064;-63
2024/03/12 07:20:29;;;;;;;14.55;8.68;;;6.00;99.90;;;;;;5018011;28;20120;-63
2024/03/12 07:23:15;;;;;;;14.05;8.27;;;6.00;99.90;;;;;;5020349;28;20030;-63
2024/03/12 07:26:01;;;;;;;11.77;6.80;;;6.00;99.90;;;;;;5020577;28;20491;-63
2024/03/12 07:28:47;;;;;;;13.02;7.38;;;6.00;99.90;;;;;;5023105;28;20255;-63
2024/03/12 07:31:34;;;;;;;14.00;8.07;;;6.00;99.90;;;;;;5025289;28;20040;-63
2024/03/12 07:34:20;;;;;;;15.20;8.30;;;6.10;99.90;;;;;;5031019;28;20112;-63
2024/03/12 07:37:06;;;;;;;13.05;7.43;;;6.10;99.90;;;;;;5026246;28;20037;-63
2024/03/12 07:39:52;;;;;;;15.07;7.70;;;6.10;99.90;;;;;;5026125;28;20742;-63
2024/03/12 07:42:41;;;;;;;13.00;8.27;;;6.10;99.90;;;;;;5026286;28;20041;-63
2024/03/12 07:45:27;;;;;;;12.70;7.50;;;6.10;99.90;;;;;;5027072;28;20119;-63
2024/03/12 07:48:14;;;;;;;12.90;7.30;;;6.10;99.90;;;;;;5022255;28;20453;-63
2024/03/12 07:51:00;;;;;;;13.18;8.07;;;6.10;99.90;;;;;;5024234;28;20729;-63
2024/03/12 07:53:46;;;;;;;13.23;7.65;;;6.10;99.90;;;;;;5023263;28;20034;-63
2024/03/12 07:56:32;;;;;;;14.40;8.40;;;6.00;99.90;;;;;;5025455;28;20072;-63
2024/03/12 07:59:22;;;;;;;8.43;5.18;;;6.10;99.90;;;;;;5017423;28;20038;-63
2024/03/12 08:02:19;;;;;;;10.15;6.45;;;6.10;99.90;;;;;;5021019;28;20592;-63
2024/03/12 08:05:07;;;;;;;12.68;6.55;;;6.10;99.90;;;;;;5023334;28;20050;-63
2024/03/12 08:07:53;;;;;;;11.45;6.75;;;6.10;99.90;;;;;;5009495;28;20048;-63
2024/03/12 08:10:39;;;;;;;10.45;6.13;;;6.10;99.90;;;;;;5023271;28;20091;-63
2024/03/12 08:13:25;;;;;;;13.77;7.10;;;6.10;99.90;;;;;;5021189;28;20135;-65
2024/03/12 08:16:11;;;;;;;11.70;6.80;;;6.10;99.90;;;;;;5008091;28;20041;-66
2024/03/12 08:18:58;;;;;;;12.13;6.82;;;6.00;99.90;;;;;;5023393;28;20307;-63
2024/03/12 08:21:44;;;;;;;12.45;7.78;;;6.10;99.90;;;;;;5025387;28;20043;-64
2024/03/12 08:24:30;;;;;;;12.07;7.40;;;6.10;99.90;;;;;;5025940;28;20675;-64
2024/03/12 08:27:18;;;;;;;14.50;8.18;;;6.20;99.90;;;;;;5024668;28;20049;-62
2024/03/12 08:30:04;;;;;;;14.82;8.73;;;6.20;99.90;;;;;;5023905;28;20838;-63
2024/03/12 08:32:50;;;;;;;14.32;7.75;;;6.20;99.90;;;;;;5019679;28;20168;-64
2024/03/12 08:35:36;;;;;;;12.80;6.65;;;6.10;99.90;;;;;;5024665;28;20475;-63
2024/03/12 08:38:23;;;;;;;13.00;7.13;;;6.20;99.90;;;;;;5022302;28;20040;-64
2024/03/12 08:41:09;;;;;;;12.73;6.95;;;6.20;99.90;;;;;;5018277;28;20033;-61
2024/03/12 08:43:56;;;;;;;14.50;7.70;;;6.20;99.90;;;;;;5027219;28;20034;-61
2024/03/12 08:46:42;;;;;;;11.48;6.30;;;6.20;99.90;;;;;;5022783;28;20029;-61
2024/03/12 08:49:27;;;;;;;15.50;6.63;;;6.20;99.90;;;;;;5020816;28;20041;-61
2024/03/12 08:52:13;;;;;;;13.57;6.68;;;6.20;99.90;;;;;;5018415;28;20017;-61
2024/03/12 08:54:59;;;;;;;14.75;7.40;;;6.20;99.90;;;;;;5020000;28;20045;-61
2024/03/12 08:57:45;;;;;;;15.93;7.07;;;6.20;99.90;;;;;;5020184;28;20037;-61
2024/03/12 09:00:32;;;;;;;15.10;7.38;;;6.20;99.90;;;;;;5020668;28;20044;-61
2024/03/12 09:03:18;;;;;;;11.25;6.00;;;6.20;99.90;;;;;;5025344;28;20049;-61
2024/03/12 09:06:04;;;;;;;12.57;6.53;;;6.20;99.90;;;;;;5019922;28;20096;-60
2024/03/12 09:08:50;;;;;;;10.93;6.53;;;6.20;99.90;;;;;;5024513;28;20682;-59
2024/03/12 09:11:38;;;;;;;11.23;5.88;;;6.20;99.90;;;;;;5003350;28;20041;-60
2024/03/12 09:14:27;;;;;;;10.35;5.50;;;6.20;99.90;;;;;;5022968;28;20033;-61
2024/03/12 09:17:13;;;;;;;10.73;5.78;;;6.20;99.90;;;;;;5023788;28;20124;-61
2024/03/12 09:19:58;;;;;;;10.82;5.30;;;6.20;99.90;;;;;;5020531;28;20530;-61
2024/03/12 09:22:44;;;;;;;8.27;5.22;;;6.20;99.90;;;;;;5023581;28;20033;-59
2024/03/12 09:25:30;;;;;;;8.75;4.93;;;6.30;99.90;;;;;;5013876;28;20045;-61
2024/03/12 09:28:17;;;;;;;6.35;4.28;;;6.20;99.90;;;;;;5027053;28;20418;-61
2024/03/12 09:31:08;;;;;;;7.90;4.50;;;6.20;99.90;;;;;;5019383;28;20037;-61
2024/03/12 09:33:55;;;;;;;8.13;4.53;;;6.30;99.90;;;;;;5021052;28;20037;-60
2024/03/12 09:36:40;;;;;;;12.80;5.20;;;6.30;99.90;;;;;;5022690;28;20045;-61
2024/03/12 09:39:27;;;;;;;7.35;4.25;;;6.30;99.90;;;;;;5016139;28;20219;-61
2024/03/12 09:42:16;;;;;;;;;;;6.30;99.90;;;;;;5014932;28;20026;-61
2024/03/12 09:45:08;;;;;;;7.25;4.10;;;6.40;99.90;;;;;;5022720;28;19960;-60
2024/03/12 09:47:54;;;;;;;9.23;4.65;;;6.40;99.90;;;;;;5026985;28;20030;-61
2024/03/12 09:50:43;;;;;;;6.78;4.38;;;6.50;99.90;;;;;;5027747;28;20098;-61
2024/03/12 09:53:29;;;;;;;8.32;4.60;;;6.40;99.90;;;;;;5011070;28;20757;-61
2024/03/12 09:56:17;;;;;;;5.90;3.30;;;6.50;99.90;;;;;;5021985;28;20125;-61
2024/03/12 09:59:04;;;;;;;7.75;3.92;;;6.40;99.90;;;;;;5021419;28;20120;-61
2024/03/12 10:01:51;;;;;;;8.88;4.57;;;6.40;99.90;;;;;;5022177;28;20132;-61
2024/03/12 10:04:37;;;;;;;8.85;4.35;;;6.40;99.90;;;;;;5021155;28;20041;-60
2024/03/12 10:07:24;;;;;;;7.65;4.50;;;6.50;99.90;;;;;;5026144;28;20049;-61
2024/03/12 10:10:10;;;;;;;9.07;5.10;;;6.50;99.90;;;;;;5023606;28;20171;-61
2024/03/12 10:12:58;;;;;;;8.95;5.22;;;6.60;99.90;;;;;;5021933;28;20112;-61
2024/03/12 10:15:56;;;;;;;9.00;5.50;;;6.60;99.90;;;;;;5023621;28;20084;-61
2024/03/12 10:18:42;;;;;;;11.32;6.10;;;6.60;99.90;;;;;;5020036;28;20032;-60
2024/03/12 10:21:28;;;;;;;11.40;5.97;;;6.60;99.90;;;;;;5022780;28;20025;-61
2024/03/12 10:24:21;;;;;;;11.45;6.45;;;6.50;99.90;;;;;;5023818;28;20029;-61
2024/03/12 10:27:07;;;;;;;10.65;6.60;;;6.50;99.90;;;;;;5027023;28;20041;-61
2024/03/12 10:29:53;;;;;;;12.02;7.00;;;6.50;99.90;;;;;;5021333;28;20466;-60
2024/03/12 10:32:39;;;;;;;11.00;6.13;;;6.50;99.90;;;;;;5022078;28;20631;-61
2024/03/12 10:35:25;;;;;;;11.07;6.13;;;6.50;99.90;;;;;;5022679;28;20052;-61
2024/03/12 10:38:13;;;;;;;10.48;5.75;;;6.60;99.90;;;;;;5022092;28;20525;-61
2024/03/12 10:41:17;;;;;;;9.45;5.45;;;6.60;99.90;;;;;;5021484;28;20041;-61
2024/03/12 10:44:05;;;;;;;9.57;5.40;;;6.60;99.90;;;;;;5021696;28;20132;-61
2024/03/12 10:46:52;;;;;;;13.80;5.90;;;6.70;99.90;;;;;;5024429;28;20040;-61
2024/03/12 10:49:38;;;;;;;10.82;5.78;;;6.70;99.90;;;;;;5021562;28;20112;-61
2024/03/12 10:52:24;;;;;;;9.43;5.82;;;6.70;99.90;;;;;;5025102;28;20037;-61
2024/03/12 10:55:10;;;;;;;10.63;5.68;;;6.60;99.90;;;;;;5020117;28;20109;-60
2024/03/12 10:57:57;;;;;;;10.50;6.03;;;6.60;99.90;;;;;;5019275;28;20605;-61
2024/03/12 11:00:44;;;;;;;13.52;6.82;;;6.50;99.90;;;;;;5024569;28;20581;-60
2024/03/12 11:03:33;;;;;;;13.43;6.05;;;6.50;99.90;;;;;;5015648;28;20038;-61
2024/03/12 11:06:21;;;;;;;12.05;7.03;;;6.50;99.90;;;;;;5016503;28;20045;-61
2024/03/12 11:09:08;;;;;;;12.52;6.85;;;6.60;99.90;;;;;;5021165;28;20036;-61
2024/03/12 11:11:54;;;;;;;12.25;6.13;;;6.50;99.90;;;;;;5024709;28;20495;-61
2024/03/12 11:14:39;;;;;;;10.53;5.67;;;6.50;99.90;;;;;;5021600;28;20036;-61
2024/03/12 11:17:27;;;;;;;11.23;6.22;;;6.50;99.90;;;;;;5016082;28;20305;-61
2024/03/12 11:20:18;;;;;;;9.93;5.47;;;6.40;99.90;;;;;;5024771;28;20022;-61
2024/03/12 11:23:04;;;;;;;10.07;6.10;;;6.50;99.90;;;;;;5019826;28;20026;-61
2024/03/12 11:25:50;;;;;;;14.75;6.55;;;6.50;99.90;;;;;;5021143;28;20034;-61
2024/03/12 11:28:50;;;;;;;10.82;5.93;;;6.50;99.90;;;;;;5020504;28;20285;-61
2024/03/12 11:31:38;;;;;;;11.50;5.38;;;6.50;99.90;;;;;;5020244;28;20061;-61
2024/03/12 11:34:31;;;;;;;11.75;6.57;;;6.50;99.90;;;;;;5019247;28;20033;-61
2024/03/12 11:37:19;;;;;;;10.15;6.22;;;6.50;99.90;;;;;;5021903;28;20041;-61
2024/03/12 11:40:27;;;;;;;14.40;6.90;;;6.40;99.90;;;;;;5008089;28;20072;-61
2024/03/12 11:43:41;;;;;;;12.23;7.00;;;6.50;99.90;;;;;;5020515;28;20414;-61
2024/03/12 11:46:44;;;;;;;10.35;6.50;;;6.40;99.90;;;;;;5018082;28;20042;-61
2024/03/12 11:49:33;;;;;;;11.07;5.97;;;6.40;99.90;;;;;;5018640;28;20095;-61
2024/03/12 11:52:22;;;;;;;12.52;5.78;;;6.60;99.90;;;;;;5020509;28;20041;-61
2024/03/12 11:55:10;;;;;;;12.27;5.75;;;6.60;99.90;;;;;;5020056;28;20490;-61
2024/03/12 11:57:58;;;;;;;8.02;4.28;;;6.60;99.90;;;;;;5019127;28;20457;-61
2024/03/12 12:00:43;;;;;;;9.35;4.60;;;6.70;99.90;;;;;;5002464;28;20128;-61
2024/03/12 12:03:29;;;;;;;8.80;4.85;;;6.70;99.90;;;;;;5019695;28;21507;-61
2024/03/12 12:06:19;;;;;;;9.33;5.13;;;6.70;99.90;;;;;;5020435;28;20033;-61
2024/03/12 12:09:08;;;;;;;11.05;4.85;;;6.60;99.90;;;;;;5020139;28;20025;-61
2024/03/12 12:11:54;;;;;;;6.90;3.97;;;6.60;99.90;;;;;;5006797;28;20092;-61
2024/03/12 12:14:44;;;;;;;6.40;3.38;;;6.60;99.90;;;;;;5024241;28;20030;-61
2024/03/12 12:17:31;;;;;;;7.50;3.70;;;6.60;99.90;;;;;;5023653;28;20045;-61
2024/03/12 12:20:21;;;;;;;6.65;4.25;;;6.70;99.90;;;;;;5022594;28;20037;-61
2024/03/12 12:23:07;;;;;;;6.88;3.72;;;6.70;99.90;;;;;;5023891;28;20087;-61
2024/03/12 12:25:54;;;;;;;6.63;4.00;;;6.80;99.90;;;;;;5024453;28;20037;-61
2024/03/12 12:28:41;;;;;;;8.13;4.35;;;6.70;99.90;;;;;;5024171;28;20453;-61
2024/03/12 12:31:29;;;;;;;7.13;4.32;;;6.60;99.90;;;;;;5021878;28;20092;-61
2024/03/12 12:34:15;;;;;;;6.68;4.20;;;6.60;99.90;;;;;;5022221;28;20056;-61
2024/03/12 12:37:01;;;;;;;9.27;4.82;;;6.60;99.90;;;;;;5019792;28;20045;-65
2024/03/12 12:39:48;;;;;;;10.73;4.75;;;6.60;99.90;;;;;;5025731;28;20109;-64
2024/03/12 12:42:38;;;;;;;8.20;4.75;;;6.50;99.90;;;;;;5024590;28;20041;-63
2024/03/12 12:45:24;;;;;;;9.38;5.07;;;6.40;99.90;;;;;;5025821;28;20041;-63
2024/03/12 12:48:11;;;;;;;12.20;5.90;;;6.40;99.90;;;;;;5023063;28;20069;-62
2024/03/12 12:51:02;;;;;;;9.88;6.07;;;6.40;99.90;;;;;;5023004;28;20608;-63
2024/03/12 12:53:49;;;;;;;11.50;6.00;;;6.30;99.90;;;;;;5023228;28;20037;-64
2024/03/12 12:56:43;;;;;;;11.93;6.45;;;6.30;99.90;;;;;;5029339;28;20068;-63
2024/03/12 12:59:34;;;;;;;15.00;8.30;;;6.30;99.90;;;;;;5022825;28;20045;-64
2024/03/12 13:02:20;;;;;;;18.98;9.48;;;6.30;99.90;;;;;;5019527;28;20048;-63
2024/03/12 13:05:06;;;;;;;18.33;9.13;;;6.30;99.90;;;;;;5024057;28;20037;-65
2024/03/12 13:07:52;;;;;;;17.87;9.67;;;6.30;99.90;;;;;;5020400;28;20132;-65
2024/03/12 13:10:38;;;;;;;22.30;9.65;;;6.30;99.90;;;;;;5024190;28;20556;-63
2024/03/12 13:13:27;;;;;;;20.88;10.88;;;6.30;99.90;;;;;;5023722;28;20029;-66
2024/03/12 13:16:15;;;;;;;20.13;10.30;;;6.30;99.90;;;;;;5061942;22;20147;-63
2024/03/12 13:19:01;;;;;;;22.10;10.88;;;6.30;99.90;;;;;;5061571;28;20031;-64
2024/03/12 13:21:48;;;;;;;21.35;10.65;;;6.30;99.90;;;;;;5059440;28;20028;-64
2024/03/12 13:24:34;;;;;;;22.27;12.23;;;6.30;99.90;;;;;;5044078;28;20122;-64
2024/03/12 13:27:21;;;;;;;18.70;9.68;;;6.30;99.90;;;;;;5063004;28;20098;-64
2024/03/12 13:30:08;;;;;;;20.02;10.55;;;6.30;99.90;;;;;;5058049;28;20532;-64
2024/03/12 13:32:54;;;;;;;26.88;12.55;;;6.30;99.90;;;;;;5061961;28;20032;-64
2024/03/12 13:35:42;;;;;;;33.53;15.10;;;6.30;99.90;;;;;;5060546;28;20089;-64
2024/03/12 13:38:28;;;;;;;30.90;14.85;;;6.30;99.90;;;;;;5053680;28;20029;-64
2024/03/12 13:41:14;;;;;;;30.00;15.27;;;6.40;99.90;;;;;;5062191;28;20028;-64
2024/03/12 13:44:01;;;;;;;35.15;16.95;;;6.40;99.90;;;;;;5058878;28;20025;-64
2024/03/12 13:46:47;;;;;;;35.60;16.55;;;6.40;99.90;;;;;;5062193;28;20044;-64
2024/03/12 13:49:33;;;;;;;36.92;17.20;;;6.40;99.90;;;;;;5044657;28;20028;-64
2024/03/12 13:52:20;;;;;;;38.75;17.83;;;6.50;99.90;;;;;;5062511;28;20035;-63
2024/03/12 13:55:06;;;;;;;40.15;17.95;;;6.50;99.90;;;;;;5060016;28;20177;-64
2024/03/12 13:57:52;;;;;;;32.57;16.03;;;6.40;99.90;;;;;;5062256;28;20082;-64
2024/03/12 14:00:40;;;;;;;33.67;15.43;;;6.40;99.90;;;;;;5059332;28;20063;-64
2024/03/12 14:03:27;;;;;;;34.40;16.17;;;6.40;99.90;;;;;;5046374;28;20125;-63
2024/03/12 14:06:12;;;;;;;29.65;13.57;;;6.50;99.90;;;;;;5045615;28;20068;-65
2024/03/12 14:08:59;;;;;;;34.85;15.75;;;6.50;99.90;;;;;;5059238;28;20033;-65
2024/03/12 14:11:45;;;;;;;30.15;15.85;;;6.50;99.90;;;;;;5060893;28;20459;-64
2024/03/12 14:14:32;;;;;;;34.80;16.63;;;6.50;99.90;;;;;;5059242;28;20071;-65
2024/03/12 14:17:18;;;;;;;37.00;18.83;;;6.50;99.90;;;;;;5064853;28;20094;-65
2024/03/12 14:20:10;;;;;;;40.25;20.80;;;6.50;99.90;;;;;;5059665;28;20485;-64
2024/03/12 14:22:56;;;;;;;43.35;21.42;;;6.60;99.90;;;;;;5058641;28;20033;-65
2024/03/12 14:25:42;;;;;;;43.60;22.27;;;6.70;99.90;;;;;;5060345;28;20032;-65
2024/03/12 14:28:28;;;;;;;46.17;24.48;;;6.70;99.90;;;;;;5058049;28;20114;-65
2024/03/12 14:31:14;;;;;;;47.72;23.60;;;6.70;99.90;;;;;;5059301;28;20094;-64
2024/03/12 14:34:00;;;;;;;57.65;26.15;;;6.70;99.90;;;;;;5058897;28;20191;-65
2024/03/12 14:36:46;;;;;;;52.38;27.40;;;6.60;99.90;;;;;;5056584;28;20219;-64